sensor_id;sensor_type;location;lat;lon;timestamp;pressure;altitude;pressure_sealevel;temperature
15575;BMP180;7888;46.748;8.102;2023-04-06T00:01:56;94213.00;;;8.70
15575;BMP180;7888;46.748;8.102;2023-04-06T00:04:22;94215.00;;;8.70
15575;BMP180;7888;46.748;8.102;2023-04-06T00:06:48;94206.00;;;8.70
15575;BMP180;7888;46.748;8.102;2023-04-06T00:09:14;94206.00;;;8.70
15575;BMP180;7888;46.748;8.102;2023-04-06T00:11:40;94208.00;;;8.60
15575;BMP180;7888;46.748;8.102;2023-04-06T00:14:06;94211.00;;;8.60
15575;BMP180;7888;46.748;8.102;2023-04-06T00:16:32;94193.00;;;8.60
15575;BMP180;7888;46.748;8.102;2023-04-06T00:18:58;94202.00;;;8.50
15575;BMP180;7888;46.748;8.102;2023-04-06T00:21:24;94212.00;;;8.50
15575;BMP180;7888;46.748;8.102;2023-04-06T00:23:51;94206.00;;;8.50
15575;BMP180;7888;46.748;8.102;2023-04-06T00:26:16;94208.00;;;8.50
15575;BMP180;7888;46.748;8.102;2023-04-06T00:28:42;94203.00;;;8.40
15575;BMP180;7888;46.748;8.102;2023-04-06T00:31:08;94203.00;;;8.40
15575;BMP180;7888;46.748;8.102;2023-04-06T00:33:34;94204.00;;;8.40
15575;BMP180;7888;46.748;8.102;2023-04-06T00:35:59;94205.00;;;8.40
15575;BMP180;7888;46.748;8.102;2023-04-06T00:38:25;94198.00;;;8.40
15575;BMP180;7888;46.748;8.102;2023-04-06T00:40:51;94187.00;;;8.30
15575;BMP180;7888;46.748;8.102;2023-04-06T00:43:17;94193.00;;;8.30
15575;BMP180;7888;46.748;8.102;2023-04-06T00:45:43;94196.00;;;8.30
15575;BMP180;7888;46.748;8.102;2023-04-06T00:48:09;94194.00;;;8.30
15575;BMP180;7888;46.748;8.102;2023-04-06T00:50:35;94193.00;;;8.30
15575;BMP180;7888;46.748;8.102;2023-04-06T00:53:01;94193.00;;;8.30
15575;BMP180;7888;46.748;8.102;2023-04-06T00:55:28;94191.00;;;8.20
15575;BMP180;7888;46.748;8.102;2023-04-06T00:57:58;94190.00;;;8.20
15575;BMP180;7888;46.748;8.102;2023-04-06T01:00:24;94154.00;;;8.20
15575;BMP180;7888;46.748;8.102;2023-04-06T01:02:51;94190.00;;;8.20
15575;BMP180;7888;46.748;8.102;2023-04-06T01:05:17;94183.00;;;8.20
15575;BMP180;7888;46.748;8.102;2023-04-06T01:07:42;94182.00;;;8.20
15575;BMP180;7888;46.748;8.102;2023-04-06T01:10:09;94179.00;;;8.20
15575;BMP180;7888;46.748;8.102;2023-04-06T01:12:35;94168.00;;;8.10
15575;BMP180;7888;46.748;8.102;2023-04-06T01:15:04;94170.00;;;8.10
15575;BMP180;7888;46.748;8.102;2023-04-06T01:17:30;94176.00;;;8.10
15575;BMP180;7888;46.748;8.102;2023-04-06T01:19:56;94140.00;;;8.00
15575;BMP180;7888;46.748;8.102;2023-04-06T01:22:23;94181.00;;;8.00
15575;BMP180;7888;46.748;8.102;2023-04-06T01:24:49;94160.00;;;8.00
15575;BMP180;7888;46.748;8.102;2023-04-06T01:27:15;94161.00;;;8.00
15575;BMP180;7888;46.748;8.102;2023-04-06T01:29:41;94167.00;;;8.00
15575;BMP180;7888;46.748;8.102;2023-04-06T01:32:07;94171.00;;;7.90
15575;BMP180;7888;46.748;8.102;2023-04-06T01:34:33;94182.00;;;7.90
15575;BMP180;7888;46.748;8.102;2023-04-06T01:36:59;94169.00;;;7.90
15575;BMP180;7888;46.748;8.102;2023-04-06T01:39:25;94167.00;;;7.90
15575;BMP180;7888;46.748;8.102;2023-04-06T01:41:51;94161.00;;;7.80
15575;BMP180;7888;46.748;8.102;2023-04-06T01:44:18;94165.00;;;7.90
15575;BMP180;7888;46.748;8.102;2023-04-06T01:46:45;94158.00;;;7.80
15575;BMP180;7888;46.748;8.102;2023-04-06T01:49:12;94165.00;;;7.90
15575;BMP180;7888;46.748;8.102;2023-04-06T01:51:38;94141.00;;;7.80
15575;BMP180;7888;46.748;8.102;2023-04-06T01:54:04;94158.00;;;7.80
15575;BMP180;7888;46.748;8.102;2023-04-06T01:56:30;94159.00;;;7.80
15575;BMP180;7888;46.748;8.102;2023-04-06T01:58:56;94159.00;;;7.70
15575;BMP180;7888;46.748;8.102;2023-04-06T02:01:22;94156.00;;;7.70
15575;BMP180;7888;46.748;8.102;2023-04-06T02:03:48;94154.00;;;7.70
15575;BMP180;7888;46.748;8.102;2023-04-06T02:06:14;94158.00;;;7.70
15575;BMP180;7888;46.748;8.102;2023-04-06T02:08:40;94164.00;;;7.70
15575;BMP180;7888;46.748;8.102;2023-04-06T02:11:06;94138.00;;;7.60
15575;BMP180;7888;46.748;8.102;2023-04-06T02:13:31;94153.00;;;7.70
15575;BMP180;7888;46.748;8.102;2023-04-06T02:15:57;94160.00;;;7.70
15575;BMP180;7888;46.748;8.102;2023-04-06T02:18:23;94153.00;;;7.60
15575;BMP180;7888;46.748;8.102;2023-04-06T02:20:49;94157.00;;;7.60
15575;BMP180;7888;46.748;8.102;2023-04-06T02:23:15;94135.00;;;7.60
15575;BMP180;7888;46.748;8.102;2023-04-06T02:25:41;94148.00;;;7.50
15575;BMP180;7888;46.748;8.102;2023-04-06T02:28:07;94152.00;;;7.50
15575;BMP180;7888;46.748;8.102;2023-04-06T02:30:33;94160.00;;;7.50
15575;BMP180;7888;46.748;8.102;2023-04-06T02:33:00;94150.00;;;7.50
15575;BMP180;7888;46.748;8.102;2023-04-06T02:35:29;94125.00;;;7.50
15575;BMP180;7888;46.748;8.102;2023-04-06T02:37:55;94135.00;;;7.40
15575;BMP180;7888;46.748;8.102;2023-04-06T02:40:21;94144.00;;;7.40
15575;BMP180;7888;46.748;8.102;2023-04-06T02:42:47;94139.00;;;7.40
15575;BMP180;7888;46.748;8.102;2023-04-06T02:45:13;94148.00;;;7.40
15575;BMP180;7888;46.748;8.102;2023-04-06T02:47:39;94144.00;;;7.40
15575;BMP180;7888;46.748;8.102;2023-04-06T02:50:05;94108.00;;;7.40
15575;BMP180;7888;46.748;8.102;2023-04-06T02:52:32;94143.00;;;7.40
15575;BMP180;7888;46.748;8.102;2023-04-06T02:54:57;94140.00;;;7.30
15575;BMP180;7888;46.748;8.102;2023-04-06T02:57:23;94142.00;;;7.30
15575;BMP180;7888;46.748;8.102;2023-04-06T02:59:49;94125.00;;;7.30
15575;BMP180;7888;46.748;8.102;2023-04-06T03:02:15;94135.00;;;7.30
15575;BMP180;7888;46.748;8.102;2023-04-06T03:04:41;94132.00;;;7.30
15575;BMP180;7888;46.748;8.102;2023-04-06T03:07:07;94134.00;;;7.10
15575;BMP180;7888;46.748;8.102;2023-04-06T03:09:33;94135.00;;;7.20
15575;BMP180;7888;46.748;8.102;2023-04-06T03:11:59;94114.00;;;7.20
15575;BMP180;7888;46.748;8.102;2023-04-06T03:14:27;94133.00;;;7.20
15575;BMP180;7888;46.748;8.102;2023-04-06T03:16:53;94131.00;;;7.20
15575;BMP180;7888;46.748;8.102;2023-04-06T03:19:18;94131.00;;;7.20
15575;BMP180;7888;46.748;8.102;2023-04-06T03:21:44;94134.00;;;7.10
15575;BMP180;7888;46.748;8.102;2023-04-06T03:24:11;94133.00;;;7.10
15575;BMP180;7888;46.748;8.102;2023-04-06T03:26:38;94141.00;;;7.10
15575;BMP180;7888;46.748;8.102;2023-04-06T03:29:04;94134.00;;;7.10
15575;BMP180;7888;46.748;8.102;2023-04-06T03:31:29;94137.00;;;7.10
15575;BMP180;7888;46.748;8.102;2023-04-06T03:33:55;94124.00;;;7.10
15575;BMP180;7888;46.748;8.102;2023-04-06T03:36:21;94134.00;;;7.10
15575;BMP180;7888;46.748;8.102;2023-04-06T03:38:47;94133.00;;;7.10
15575;BMP180;7888;46.748;8.102;2023-04-06T03:41:13;94094.00;;;7.00
15575;BMP180;7888;46.748;8.102;2023-04-06T03:43:39;94135.00;;;7.10
15575;BMP180;7888;46.748;8.102;2023-04-06T03:46:04;94123.00;;;7.10
15575;BMP180;7888;46.748;8.102;2023-04-06T03:48:30;94142.00;;;7.00
15575;BMP180;7888;46.748;8.102;2023-04-06T03:50:56;94136.00;;;7.00
15575;BMP180;7888;46.748;8.102;2023-04-06T03:53:22;94136.00;;;7.00
15575;BMP180;7888;46.748;8.102;2023-04-06T03:55:48;94134.00;;;7.00
15575;BMP180;7888;46.748;8.102;2023-04-06T03:58:14;94145.00;;;7.00
15575;BMP180;7888;46.748;8.102;2023-04-06T04:00:40;94118.00;;;6.90
15575;BMP180;7888;46.748;8.102;2023-04-06T04:03:05;94135.00;;;7.00
15575;BMP180;7888;46.748;8.102;2023-04-06T04:05:31;94143.00;;;6.90
15575;BMP180;7888;46.748;8.102;2023-04-06T04:07:57;94116.00;;;6.90
15575;BMP180;7888;46.748;8.102;2023-04-06T04:10:23;94144.00;;;6.90
15575;BMP180;7888;46.748;8.102;2023-04-06T04:12:48;94140.00;;;6.90
15575;BMP180;7888;46.748;8.102;2023-04-06T04:15:14;94123.00;;;6.90
15575;BMP180;7888;46.748;8.102;2023-04-06T04:17:40;94135.00;;;6.90
15575;BMP180;7888;46.748;8.102;2023-04-06T04:20:07;94141.00;;;6.80
15575;BMP180;7888;46.748;8.102;2023-04-06T04:22:33;94148.00;;;6.80
15575;BMP180;7888;46.748;8.102;2023-04-06T04:24:59;94144.00;;;6.80
15575;BMP180;7888;46.748;8.102;2023-04-06T04:27:25;94138.00;;;6.80
15575;BMP180;7888;46.748;8.102;2023-04-06T04:29:50;94153.00;;;6.80
15575;BMP180;7888;46.748;8.102;2023-04-06T04:32:16;94145.00;;;6.80
15575;BMP180;7888;46.748;8.102;2023-04-06T04:34:42;94151.00;;;6.80
15575;BMP180;7888;46.748;8.102;2023-04-06T04:37:08;94149.00;;;6.80
15575;BMP180;7888;46.748;8.102;2023-04-06T04:39:34;94148.00;;;6.70
15575;BMP180;7888;46.748;8.102;2023-04-06T04:42:00;94135.00;;;6.70
15575;BMP180;7888;46.748;8.102;2023-04-06T04:44:26;94152.00;;;6.70
15575;BMP180;7888;46.748;8.102;2023-04-06T04:46:52;94149.00;;;6.70
15575;BMP180;7888;46.748;8.102;2023-04-06T04:49:17;94145.00;;;6.60
15575;BMP180;7888;46.748;8.102;2023-04-06T04:51:43;94146.00;;;6.60
15575;BMP180;7888;46.748;8.102;2023-04-06T04:54:09;94126.00;;;6.60
15575;BMP180;7888;46.748;8.102;2023-04-06T04:56:35;94157.00;;;6.60
15575;BMP180;7888;46.748;8.102;2023-04-06T04:59:01;94149.00;;;6.50
15575;BMP180;7888;46.748;8.102;2023-04-06T05:01:27;94150.00;;;6.50
15575;BMP180;7888;46.748;8.102;2023-04-06T05:03:54;94151.00;;;6.50
15575;BMP180;7888;46.748;8.102;2023-04-06T05:06:20;94163.00;;;6.50
15575;BMP180;7888;46.748;8.102;2023-04-06T05:08:46;94161.00;;;6.50
15575;BMP180;7888;46.748;8.102;2023-04-06T05:11:11;94163.00;;;6.50
15575;BMP180;7888;46.748;8.102;2023-04-06T05:13:38;94145.00;;;6.60
15575;BMP180;7888;46.748;8.102;2023-04-06T05:16:04;94157.00;;;6.50
15575;BMP180;7888;46.748;8.102;2023-04-06T05:18:30;94168.00;;;6.60
15575;BMP180;7888;46.748;8.102;2023-04-06T05:20:56;94172.00;;;6.60
15575;BMP180;7888;46.748;8.102;2023-04-06T05:23:21;94171.00;;;6.60
15575;BMP180;7888;46.748;8.102;2023-04-06T05:25:47;94170.00;;;6.60
15575;BMP180;7888;46.748;8.102;2023-04-06T05:28:13;94168.00;;;6.60
15575;BMP180;7888;46.748;8.102;2023-04-06T05:30:41;94166.00;;;6.60
15575;BMP180;7888;46.748;8.102;2023-04-06T05:33:07;94172.00;;;6.60
15575;BMP180;7888;46.748;8.102;2023-04-06T05:35:33;94167.00;;;6.60
15575;BMP180;7888;46.748;8.102;2023-04-06T05:37:59;94176.00;;;6.60
15575;BMP180;7888;46.748;8.102;2023-04-06T05:40:25;94181.00;;;6.60
15575;BMP180;7888;46.748;8.102;2023-04-06T05:42:51;94173.00;;;6.60
15575;BMP180;7888;46.748;8.102;2023-04-06T05:45:17;94181.00;;;6.60
15575;BMP180;7888;46.748;8.102;2023-04-06T05:47:44;94182.00;;;6.60
15575;BMP180;7888;46.748;8.102;2023-04-06T05:50:12;94195.00;;;6.50
15575;BMP180;7888;46.748;8.102;2023-04-06T05:52:38;94191.00;;;6.60
15575;BMP180;7888;46.748;8.102;2023-04-06T05:55:04;94166.00;;;6.60
15575;BMP180;7888;46.748;8.102;2023-04-06T05:57:31;94155.00;;;6.70
15575;BMP180;7888;46.748;8.102;2023-04-06T05:59:57;94198.00;;;6.70
15575;BMP180;7888;46.748;8.102;2023-04-06T06:02:23;94188.00;;;6.70
15575;BMP180;7888;46.748;8.102;2023-04-06T06:04:49;94196.00;;;6.80
15575;BMP180;7888;46.748;8.102;2023-04-06T06:07:16;94191.00;;;6.80
15575;BMP180;7888;46.748;8.102;2023-04-06T06:09:42;94199.00;;;6.80
15575;BMP180;7888;46.748;8.102;2023-04-06T06:12:08;94176.00;;;6.90
15575;BMP180;7888;46.748;8.102;2023-04-06T06:14:34;94199.00;;;6.90
15575;BMP180;7888;46.748;8.102;2023-04-06T06:17:00;94192.00;;;7.00
15575;BMP180;7888;46.748;8.102;2023-04-06T06:19:27;94172.00;;;7.00
15575;BMP180;7888;46.748;8.102;2023-04-06T06:21:53;94186.00;;;7.10
15575;BMP180;7888;46.748;8.102;2023-04-06T06:24:19;94211.00;;;7.20
15575;BMP180;7888;46.748;8.102;2023-04-06T06:26:45;94192.00;;;7.20
15575;BMP180;7888;46.748;8.102;2023-04-06T06:29:12;94195.00;;;7.30
15575;BMP180;7888;46.748;8.102;2023-04-06T06:31:38;94201.00;;;7.40
15575;BMP180;7888;46.748;8.102;2023-04-06T06:34:04;94183.00;;;7.50
15575;BMP180;7888;46.748;8.102;2023-04-06T06:36:30;94177.00;;;7.60
15575;BMP180;7888;46.748;8.102;2023-04-06T06:38:58;94199.00;;;7.60
15575;BMP180;7888;46.748;8.102;2023-04-06T06:41:26;94205.00;;;7.70
15575;BMP180;7888;46.748;8.102;2023-04-06T06:43:52;94205.00;;;7.80
15575;BMP180;7888;46.748;8.102;2023-04-06T06:46:19;94200.00;;;7.90
15575;BMP180;7888;46.748;8.102;2023-04-06T06:48:46;94209.00;;;8.00
15575;BMP180;7888;46.748;8.102;2023-04-06T06:51:12;94193.00;;;8.10
15575;BMP180;7888;46.748;8.102;2023-04-06T06:53:38;94215.00;;;8.20
15575;BMP180;7888;46.748;8.102;2023-04-06T08:31:50;94208.00;;;11.40
15575;BMP180;7888;46.748;8.102;2023-04-06T08:34:17;94207.00;;;11.60
15575;BMP180;7888;46.748;8.102;2023-04-06T08:36:43;94207.00;;;11.80
15575;BMP180;7888;46.748;8.102;2023-04-06T08:39:09;94210.00;;;11.90
15575;BMP180;7888;46.748;8.102;2023-04-06T08:41:35;94211.00;;;12.10
15575;BMP180;7888;46.748;8.102;2023-04-06T08:44:02;94207.00;;;12.20
15575;BMP180;7888;46.748;8.102;2023-04-06T08:46:30;94211.00;;;12.40
15575;BMP180;7888;46.748;8.102;2023-04-06T08:48:58;94209.00;;;12.50
15575;BMP180;7888;46.748;8.102;2023-04-06T08:51:26;94208.00;;;12.60
15575;BMP180;7888;46.748;8.102;2023-04-06T08:53:59;94200.00;;;12.70
15575;BMP180;7888;46.748;8.102;2023-04-06T08:56:28;94199.00;;;12.80
15575;BMP180;7888;46.748;8.102;2023-04-06T08:58:55;94204.00;;;12.90
15575;BMP180;7888;46.748;8.102;2023-04-06T09:01:29;94203.00;;;13.00
15575;BMP180;7888;46.748;8.102;2023-04-06T09:03:58;94198.00;;;13.20
15575;BMP180;7888;46.748;8.102;2023-04-06T09:06:26;94196.00;;;13.30
15575;BMP180;7888;46.748;8.102;2023-04-06T09:08:53;94191.00;;;13.40
15575;BMP180;7888;46.748;8.102;2023-04-06T09:11:20;94162.00;;;13.50
15575;BMP180;7888;46.748;8.102;2023-04-06T09:13:52;94159.00;;;13.60
15575;BMP180;7888;46.748;8.102;2023-04-06T09:16:20;94180.00;;;13.70
15575;BMP180;7888;46.748;8.102;2023-04-06T09:18:47;94180.00;;;13.80
15575;BMP180;7888;46.748;8.102;2023-04-06T09:21:18;94176.00;;;13.90
15575;BMP180;7888;46.748;8.102;2023-04-06T09:23:44;94179.00;;;14.10
15575;BMP180;7888;46.748;8.102;2023-04-06T09:26:16;94181.00;;;14.20
15575;BMP180;7888;46.748;8.102;2023-04-06T09:31:09;94180.00;;;14.50
15575;BMP180;7888;46.748;8.102;2023-04-06T09:33:41;94171.00;;;14.60
15575;BMP180;7888;46.748;8.102;2023-04-06T09:36:08;94172.00;;;14.70
15575;BMP180;7888;46.748;8.102;2023-04-06T09:38:57;94177.00;;;14.70
15575;BMP180;7888;46.748;8.102;2023-04-06T09:41:35;94178.00;;;14.80
15575;BMP180;7888;46.748;8.102;2023-04-06T09:44:05;94173.00;;;14.90
15575;BMP180;7888;46.748;8.102;2023-04-06T09:46:35;94166.00;;;15.00
15575;BMP180;7888;46.748;8.102;2023-04-06T09:49:03;94173.00;;;15.00
15575;BMP180;7888;46.748;8.102;2023-04-06T09:51:36;94173.00;;;15.10
15575;BMP180;7888;46.748;8.102;2023-04-06T09:54:04;94173.00;;;15.30
15575;BMP180;7888;46.748;8.102;2023-04-06T09:56:50;94162.00;;;15.40
15575;BMP180;7888;46.748;8.102;2023-04-06T10:02:05;94151.00;;;15.70
15575;BMP180;7888;46.748;8.102;2023-04-06T10:04:43;94173.00;;;15.80
15575;BMP180;7888;46.748;8.102;2023-04-06T10:07:12;94171.00;;;15.90
15575;BMP180;7888;46.748;8.102;2023-04-06T10:09:44;94162.00;;;15.90
15575;BMP180;7888;46.748;8.102;2023-04-06T10:12:13;94165.00;;;15.90
15575;BMP180;7888;46.748;8.102;2023-04-06T10:14:39;94178.00;;;16.00
15575;BMP180;7888;46.748;8.102;2023-04-06T10:17:06;94180.00;;;15.90
15575;BMP180;7888;46.748;8.102;2023-04-06T10:19:44;94179.00;;;15.90
15575;BMP180;7888;46.748;8.102;2023-04-06T10:22:21;94169.00;;;15.80
15575;BMP180;7888;46.748;8.102;2023-04-06T10:24:48;94169.00;;;16.00
15575;BMP180;7888;46.748;8.102;2023-04-06T10:27:14;94183.00;;;16.00
15575;BMP180;7888;46.748;8.102;2023-04-06T10:29:47;94184.00;;;16.00
15575;BMP180;7888;46.748;8.102;2023-04-06T10:32:16;94171.00;;;16.00
15575;BMP180;7888;46.748;8.102;2023-04-06T10:34:42;94172.00;;;16.10
15575;BMP180;7888;46.748;8.102;2023-04-06T10:37:15;94156.00;;;16.00
15575;BMP180;7888;46.748;8.102;2023-04-06T10:39:54;94178.00;;;16.10
15575;BMP180;7888;46.748;8.102;2023-04-06T10:42:37;94172.00;;;16.10
15575;BMP180;7888;46.748;8.102;2023-04-06T10:45:18;94176.00;;;16.20
15575;BMP180;7888;46.748;8.102;2023-04-06T10:47:44;94172.00;;;16.30
15575;BMP180;7888;46.748;8.102;2023-04-06T10:50:15;94172.00;;;16.30
15575;BMP180;7888;46.748;8.102;2023-04-06T10:52:46;94168.00;;;16.30
15575;BMP180;7888;46.748;8.102;2023-04-06T10:55:16;94171.00;;;16.40
15575;BMP180;7888;46.748;8.102;2023-04-06T10:57:42;94160.00;;;16.40
15575;BMP180;7888;46.748;8.102;2023-04-06T11:00:08;94170.00;;;16.50
15575;BMP180;7888;46.748;8.102;2023-04-06T11:02:35;94164.00;;;16.50
15575;BMP180;7888;46.748;8.102;2023-04-06T11:05:03;94166.00;;;16.60
15575;BMP180;7888;46.748;8.102;2023-04-06T11:07:29;94164.00;;;16.70
15575;BMP180;7888;46.748;8.102;2023-04-06T11:09:56;94141.00;;;16.80
15575;BMP180;7888;46.748;8.102;2023-04-06T11:12:27;94151.00;;;16.90
15575;BMP180;7888;46.748;8.102;2023-04-06T11:15:00;94142.00;;;17.10
15575;BMP180;7888;46.748;8.102;2023-04-06T11:17:31;94129.00;;;17.20
15575;BMP180;7888;46.748;8.102;2023-04-06T11:19:58;94134.00;;;17.30
15575;BMP180;7888;46.748;8.102;2023-04-06T11:22:25;94142.00;;;17.30
15575;BMP180;7888;46.748;8.102;2023-04-06T11:24:52;94136.00;;;17.40
15575;BMP180;7888;46.748;8.102;2023-04-06T11:27:19;94129.00;;;17.50
15575;BMP180;7888;46.748;8.102;2023-04-06T11:29:47;94130.00;;;17.50
15575;BMP180;7888;46.748;8.102;2023-04-06T11:32:21;94133.00;;;17.50
15575;BMP180;7888;46.748;8.102;2023-04-06T11:34:48;94133.00;;;17.60
15575;BMP180;7888;46.748;8.102;2023-04-06T11:37:15;94132.00;;;17.60
15575;BMP180;7888;46.748;8.102;2023-04-06T11:39:52;94134.00;;;17.60
15575;BMP180;7888;46.748;8.102;2023-04-06T11:42:25;94130.00;;;17.70
15575;BMP180;7888;46.748;8.102;2023-04-06T11:44:55;94138.00;;;17.70
15575;BMP180;7888;46.748;8.102;2023-04-06T11:47:33;94126.00;;;17.70
15575;BMP180;7888;46.748;8.102;2023-04-06T11:50:08;94131.00;;;17.60
15575;BMP180;7888;46.748;8.102;2023-04-06T11:52:35;94123.00;;;17.60
15575;BMP180;7888;46.748;8.102;2023-04-06T11:55:15;94123.00;;;17.60
15575;BMP180;7888;46.748;8.102;2023-04-06T11:57:42;94122.00;;;17.60
15575;BMP180;7888;46.748;8.102;2023-04-06T12:00:10;94122.00;;;17.60
15575;BMP180;7888;46.748;8.102;2023-04-06T12:02:37;94118.00;;;17.60
15575;BMP180;7888;46.748;8.102;2023-04-06T12:05:05;94118.00;;;17.60
15575;BMP180;7888;46.748;8.102;2023-04-06T12:07:33;94123.00;;;17.60
15575;BMP180;7888;46.748;8.102;2023-04-06T12:10:02;94118.00;;;17.50
15575;BMP180;7888;46.748;8.102;2023-04-06T12:12:28;94116.00;;;17.60
15575;BMP180;7888;46.748;8.102;2023-04-06T12:14:56;94115.00;;;17.60
15575;BMP180;7888;46.748;8.102;2023-04-06T12:17:22;94112.00;;;17.60
15575;BMP180;7888;46.748;8.102;2023-04-06T12:19:49;94112.00;;;17.50
15575;BMP180;7888;46.748;8.102;2023-04-06T12:22:15;94102.00;;;17.60
15575;BMP180;7888;46.748;8.102;2023-04-06T12:24:42;94114.00;;;17.60
15575;BMP180;7888;46.748;8.102;2023-04-06T12:27:08;94122.00;;;17.60
15575;BMP180;7888;46.748;8.102;2023-04-06T12:29:34;94110.00;;;17.60
15575;BMP180;7888;46.748;8.102;2023-04-06T12:32:00;94106.00;;;17.60
15575;BMP180;7888;46.748;8.102;2023-04-06T12:34:27;94111.00;;;17.70
15575;BMP180;7888;46.748;8.102;2023-04-06T12:36:53;94103.00;;;17.70
15575;BMP180;7888;46.748;8.102;2023-04-06T12:39:19;94084.00;;;17.70
15575;BMP180;7888;46.748;8.102;2023-04-06T12:41:46;94101.00;;;17.70
15575;BMP180;7888;46.748;8.102;2023-04-06T12:44:12;94096.00;;;17.70
15575;BMP180;7888;46.748;8.102;2023-04-06T12:46:38;94100.00;;;17.80
15575;BMP180;7888;46.748;8.102;2023-04-06T12:49:04;94098.00;;;17.90
15575;BMP180;7888;46.748;8.102;2023-04-06T12:51:30;94092.00;;;17.90
15575;BMP180;7888;46.748;8.102;2023-04-06T12:53:57;94094.00;;;18.00
15575;BMP180;7888;46.748;8.102;2023-04-06T12:56:23;94096.00;;;18.00
15575;BMP180;7888;46.748;8.102;2023-04-06T12:58:51;94087.00;;;18.00
15575;BMP180;7888;46.748;8.102;2023-04-06T13:01:18;94092.00;;;18.10
15575;BMP180;7888;46.748;8.102;2023-04-06T13:03:44;94073.00;;;18.20
15575;BMP180;7888;46.748;8.102;2023-04-06T13:06:10;94081.00;;;18.30
15575;BMP180;7888;46.748;8.102;2023-04-06T13:08:38;94083.00;;;18.40
15575;BMP180;7888;46.748;8.102;2023-04-06T13:11:05;94085.00;;;18.50
15575;BMP180;7888;46.748;8.102;2023-04-06T13:13:34;94081.00;;;18.60
15575;BMP180;7888;46.748;8.102;2023-04-06T13:16:07;94085.00;;;18.60
15575;BMP180;7888;46.748;8.102;2023-04-06T13:18:34;94064.00;;;18.70
15575;BMP180;7888;46.748;8.102;2023-04-06T13:21:01;94086.00;;;18.70
15575;BMP180;7888;46.748;8.102;2023-04-06T13:23:27;94085.00;;;18.70
15575;BMP180;7888;46.748;8.102;2023-04-06T13:26:06;94084.00;;;18.70
15575;BMP180;7888;46.748;8.102;2023-04-06T13:28:35;94067.00;;;18.90
15575;BMP180;7888;46.748;8.102;2023-04-06T13:31:04;94070.00;;;18.90
15575;BMP180;7888;46.748;8.102;2023-04-06T13:33:31;94072.00;;;18.90
15575;BMP180;7888;46.748;8.102;2023-04-06T13:35:58;94073.00;;;19.00
15575;BMP180;7888;46.748;8.102;2023-04-06T13:38:24;94071.00;;;19.10
15575;BMP180;7888;46.748;8.102;2023-04-06T13:40:51;94065.00;;;19.10
15575;BMP180;7888;46.748;8.102;2023-04-06T13:43:17;94072.00;;;19.10
15575;BMP180;7888;46.748;8.102;2023-04-06T13:45:54;94069.00;;;19.10
15575;BMP180;7888;46.748;8.102;2023-04-06T13:48:23;94063.00;;;19.10
15575;BMP180;7888;46.748;8.102;2023-04-06T13:50:51;94068.00;;;19.10
15575;BMP180;7888;46.748;8.102;2023-04-06T13:53:17;94060.00;;;19.10
15575;BMP180;7888;46.748;8.102;2023-04-06T13:55:52;94069.00;;;19.20
15575;BMP180;7888;46.748;8.102;2023-04-06T13:58:18;94066.00;;;19.30
15575;BMP180;7888;46.748;8.102;2023-04-06T14:00:44;94050.00;;;19.30
15575;BMP180;7888;46.748;8.102;2023-04-06T14:03:11;94058.00;;;19.40
15575;BMP180;7888;46.748;8.102;2023-04-06T14:05:36;94067.00;;;19.50
15575;BMP180;7888;46.748;8.102;2023-04-06T14:08:02;94069.00;;;19.50
15575;BMP180;7888;46.748;8.102;2023-04-06T14:10:28;94075.00;;;19.50
15575;BMP180;7888;46.748;8.102;2023-04-06T14:12:54;94073.00;;;19.50
15575;BMP180;7888;46.748;8.102;2023-04-06T14:15:21;94070.00;;;19.60
15575;BMP180;7888;46.748;8.102;2023-04-06T14:17:48;94070.00;;;19.60
15575;BMP180;7888;46.748;8.102;2023-04-06T14:20:14;94070.00;;;19.60
15575;BMP180;7888;46.748;8.102;2023-04-06T14:22:41;94078.00;;;19.70
15575;BMP180;7888;46.748;8.102;2023-04-06T14:25:08;94048.00;;;19.70
15575;BMP180;7888;46.748;8.102;2023-04-06T14:27:35;94066.00;;;19.70
15575;BMP180;7888;46.748;8.102;2023-04-06T14:30:01;94075.00;;;19.80
15575;BMP180;7888;46.748;8.102;2023-04-06T14:32:27;94067.00;;;19.80
15575;BMP180;7888;46.748;8.102;2023-04-06T14:34:52;94073.00;;;19.80
15575;BMP180;7888;46.748;8.102;2023-04-06T14:37:18;94075.00;;;19.90
15575;BMP180;7888;46.748;8.102;2023-04-06T14:39:46;94071.00;;;19.90
15575;BMP180;7888;46.748;8.102;2023-04-06T14:42:11;94076.00;;;19.90
15575;BMP180;7888;46.748;8.102;2023-04-06T14:44:37;94067.00;;;19.90
15575;BMP180;7888;46.748;8.102;2023-04-06T14:47:09;94075.00;;;19.80
15575;BMP180;7888;46.748;8.102;2023-04-06T14:49:35;94088.00;;;19.80
15575;BMP180;7888;46.748;8.102;2023-04-06T14:52:01;94081.00;;;19.80
15575;BMP180;7888;46.748;8.102;2023-04-06T14:54:26;94075.00;;;19.80
15575;BMP180;7888;46.748;8.102;2023-04-06T14:56:52;94068.00;;;19.80
15575;BMP180;7888;46.748;8.102;2023-04-06T14:59:18;94069.00;;;19.70
15575;BMP180;7888;46.748;8.102;2023-04-06T15:01:44;94081.00;;;19.70
15575;BMP180;7888;46.748;8.102;2023-04-06T15:04:09;94083.00;;;19.70
15575;BMP180;7888;46.748;8.102;2023-04-06T15:06:35;94073.00;;;19.60
15575;BMP180;7888;46.748;8.102;2023-04-06T15:09:02;94073.00;;;19.50
15575;BMP180;7888;46.748;8.102;2023-04-06T15:11:28;94078.00;;;19.40
15575;BMP180;7888;46.748;8.102;2023-04-06T15:13:54;94072.00;;;19.40
15575;BMP180;7888;46.748;8.102;2023-04-06T15:16:20;94069.00;;;19.40
15575;BMP180;7888;46.748;8.102;2023-04-06T15:18:46;94086.00;;;19.40
15575;BMP180;7888;46.748;8.102;2023-04-06T15:21:12;94082.00;;;19.30
15575;BMP180;7888;46.748;8.102;2023-04-06T15:23:38;94081.00;;;19.30
15575;BMP180;7888;46.748;8.102;2023-04-06T15:26:04;94068.00;;;19.30
15575;BMP180;7888;46.748;8.102;2023-04-06T15:28:30;94080.00;;;19.30
15575;BMP180;7888;46.748;8.102;2023-04-06T15:30:56;94073.00;;;19.30
15575;BMP180;7888;46.748;8.102;2023-04-06T15:33:23;94072.00;;;19.30
15575;BMP180;7888;46.748;8.102;2023-04-06T15:35:49;94072.00;;;19.40
15575;BMP180;7888;46.748;8.102;2023-04-06T15:38:15;94067.00;;;19.40
15575;BMP180;7888;46.748;8.102;2023-04-06T15:40:47;94074.00;;;19.40
15575;BMP180;7888;46.748;8.102;2023-04-06T15:43:15;94095.00;;;19.40
15575;BMP180;7888;46.748;8.102;2023-04-06T15:45:41;94088.00;;;19.50
15575;BMP180;7888;46.748;8.102;2023-04-06T15:48:08;94083.00;;;19.50
15575;BMP180;7888;46.748;8.102;2023-04-06T15:50:35;94085.00;;;19.50
15575;BMP180;7888;46.748;8.102;2023-04-06T15:53:01;94081.00;;;19.50
15575;BMP180;7888;46.748;8.102;2023-04-06T15:55:27;94078.00;;;19.60
15575;BMP180;7888;46.748;8.102;2023-04-06T15:57:53;94084.00;;;19.50
15575;BMP180;7888;46.748;8.102;2023-04-06T16:00:19;94085.00;;;19.50
15575;BMP180;7888;46.748;8.102;2023-04-06T16:02:45;94089.00;;;19.40
15575;BMP180;7888;46.748;8.102;2023-04-06T16:05:11;94076.00;;;19.30
15575;BMP180;7888;46.748;8.102;2023-04-06T16:07:36;94100.00;;;19.20
15575;BMP180;7888;46.748;8.102;2023-04-06T16:10:03;94095.00;;;19.20